Time;durP1;ratioP1;P1;durP2;ratioP2;P2;SDS_P1;SDS_P2;PMS_P1;PMS_P2;Temp;Humidity;BMP_temperature;BMP_pressure;BME280_temperature;BME280_humidity;BME280_pressure;Samples;Min_cycle;Max_cycle;Signal;HPM_P1;HPM_P2
2022/11/15 00:00:34;;;;;;;49.70;26.20;;;9.10;99.90;;;;;;5093758;28;20225;-51
2022/11/15 00:02:59;;;;;;;52.03;25.80;;;9.00;99.90;;;;;;5094059;28;20169;-50
2022/11/15 00:05:25;;;;;;;44.05;23.63;;;9.10;99.90;;;;;;5093929;28;20683;-51
2022/11/15 00:07:50;;;;;;;46.22;25.33;;;9.10;99.90;;;;;;5093727;28;20648;-51
2022/11/15 00:10:16;;;;;;;126.60;60.10;;;9.20;99.90;;;;;;5093980;28;20157;-49
2022/11/15 00:12:42;;;;;;;454.98;204.82;;;9.10;99.90;;;;;;5093582;28;20268;-51
2022/11/15 00:15:08;;;;;;;187.27;90.75;;;9.10;99.90;;;;;;5093515;28;20620;-51
2022/11/15 00:17:34;;;;;;;48.53;31.05;;;9.10;99.90;;;;;;5075313;28;20571;-51
2022/11/15 00:19:59;;;;;;;47.78;25.90;;;9.20;99.90;;;;;;5093451;28;20165;-51
2022/11/15 00:22:33;;;;;;;22.52;15.05;;;9.20;99.90;;;;;;5075238;28;20257;-52
2022/11/15 00:24:58;;;;;;;21.38;17.45;;;9.20;99.90;;;;;;5093221;28;20242;-51
2022/11/15 00:27:24;;;;;;;22.95;15.98;;;9.20;99.90;;;;;;5093280;28;20192;-51
2022/11/15 00:29:49;;;;;;;24.20;17.88;;;9.20;99.90;;;;;;5093497;28;20223;-47
2022/11/15 00:32:15;;;;;;;29.20;22.45;;;9.30;99.90;;;;;;5093595;28;20161;-50
2022/11/15 00:34:40;;;;;;;25.45;18.23;;;9.30;99.90;;;;;;5093141;28;20188;-52
2022/11/15 00:37:06;;;;;;;19.83;13.02;;;9.30;99.90;;;;;;5093264;28;20175;-49
2022/11/15 00:39:32;;;;;;;19.90;14.75;;;9.30;99.90;;;;;;5093156;28;20252;-50
2022/11/15 00:41:57;;;;;;;32.72;23.13;;;9.30;99.90;;;;;;5092993;28;20625;-51
2022/11/15 00:44:23;;;;;;;25.08;14.75;;;9.20;99.90;;;;;;5093154;28;20201;-51
2022/11/15 00:46:48;;;;;;;17.50;11.88;;;9.30;99.90;;;;;;5093271;28;20166;-51
2022/11/15 00:49:14;;;;;;;15.70;10.88;;;9.30;99.90;;;;;;5092893;28;20169;-52
2022/11/15 00:51:39;;;;;;;17.25;12.38;;;9.30;99.90;;;;;;5092547;28;20206;-52
2022/11/15 00:54:05;;;;;;;18.13;10.70;;;9.30;99.90;;;;;;5092833;28;20197;-52
2022/11/15 00:56:30;;;;;;;14.20;10.35;;;9.40;99.90;;;;;;5092809;28;20628;-50
2022/11/15 00:58:56;;;;;;;17.27;11.02;;;9.40;99.90;;;;;;5092227;28;20650;-51
2022/11/15 01:01:21;;;;;;;17.73;11.27;;;9.50;99.90;;;;;;5092500;28;20596;-52
2022/11/15 01:03:47;;;;;;;15.23;10.70;;;9.40;99.90;;;;;;5092912;28;20197;-49
2022/11/15 01:06:13;;;;;;;17.85;11.30;;;9.50;99.90;;;;;;5092320;28;20170;-51
2022/11/15 01:08:39;;;;;;;15.65;10.63;;;9.40;99.90;;;;;;5092571;28;20169;-51
2022/11/15 01:11:09;;;;;;;16.45;10.10;;;9.40;99.90;;;;;;5092487;28;20530;-50
2022/11/15 01:13:36;;;;;;;16.70;11.00;;;9.50;99.90;;;;;;5092499;28;20168;-51
2022/11/15 01:16:09;;;;;;;14.88;10.00;;;9.50;99.90;;;;;;5092488;28;20245;-51
2022/11/15 01:18:34;;;;;;;15.40;9.95;;;9.50;99.90;;;;;;5092096;28;20161;-51
2022/11/15 01:21:05;;;;;;;15.15;11.02;;;9.50;99.90;;;;;;5092410;28;20581;-51
2022/11/15 01:23:30;;;;;;;15.23;11.15;;;9.60;99.90;;;;;;5092283;28;20157;-51
2022/11/15 01:26:00;;;;;;;16.90;10.10;;;9.50;99.90;;;;;;5092237;28;20218;-50
2022/11/15 01:28:30;;;;;;;14.80;10.32;;;9.50;99.90;;;;;;5092381;28;20161;-52
2022/11/15 01:30:58;;;;;;;18.42;10.65;;;9.60;99.90;;;;;;5092236;28;20249;-51
2022/11/15 01:33:24;;;;;;;15.40;10.85;;;9.50;99.90;;;;;;5092292;28;20298;-51
2022/11/15 01:35:49;;;;;;;17.95;10.45;;;9.50;99.90;;;;;;5074041;28;20211;-51
2022/11/15 01:38:15;;;;;;;14.27;10.48;;;9.50;99.90;;;;;;5092421;28;20170;-51
2022/11/15 01:40:41;;;;;;;15.13;11.20;;;9.60;99.90;;;;;;5092114;28;20644;-51
2022/11/15 01:43:23;;;;;;;14.88;11.02;;;9.60;99.90;;;;;;5091901;28;20663;-50
2022/11/15 01:46:15;;;;;;;14.50;10.13;;;9.60;99.90;;;;;;5091966;28;20232;-49
2022/11/15 01:48:40;;;;;;;17.08;10.20;;;9.70;99.90;;;;;;5078345;28;20189;-51
2022/11/15 01:51:10;;;;;;;14.45;10.20;;;9.70;99.90;;;;;;5092060;28;20265;-52
2022/11/15 01:53:39;;;;;;;13.95;9.85;;;9.70;99.90;;;;;;5091953;28;20173;-47
2022/11/15 01:56:08;;;;;;;15.23;10.13;;;9.70;99.90;;;;;;5091935;28;20267;-48
2022/11/15 01:58:35;;;;;;;16.17;9.65;;;9.80;99.90;;;;;;5091846;28;20234;-48
2022/11/15 02:01:01;;;;;;;13.75;9.73;;;9.70;99.90;;;;;;5091905;28;20234;-48
2022/11/15 02:03:36;;;;;;;17.20;10.65;;;9.70;99.90;;;;;;5073765;28;20173;-47
2022/11/15 02:06:04;;;;;;;13.10;9.85;;;9.80;99.90;;;;;;5091807;28;20180;-48
2022/11/15 02:08:29;;;;;;;16.70;10.77;;;9.80;99.90;;;;;;5091809;28;20684;-49
2022/11/15 02:10:55;;;;;;;11.20;8.82;;;9.80;99.90;;;;;;5091750;28;20192;-52
2022/11/15 02:13:20;;;;;;;15.50;10.00;;;9.80;99.90;;;;;;5095950;28;20166;-51
2022/11/15 02:16:07;;;;;;;14.98;10.38;;;9.90;99.90;;;;;;5096220;28;20205;-52
2022/11/15 02:18:38;;;;;;;17.00;10.07;;;9.90;99.90;;;;;;5095885;28;20157;-51
2022/11/15 02:21:22;;;;;;;13.52;9.95;;;9.90;99.90;;;;;;5095738;28;20207;-51
2022/11/15 02:24:12;;;;;;;16.30;10.23;;;9.90;99.90;;;;;;5095968;28;20197;-51
2022/11/15 02:26:56;;;;;;;13.10;9.75;;;9.90;99.90;;;;;;5095626;28;20170;-48
2022/11/15 02:29:48;;;;;;;17.25;9.90;;;9.90;99.90;;;;;;5095907;28;20170;-48
2022/11/15 02:32:42;;;;;;;15.20;9.85;;;9.90;99.90;;;;;;5095598;28;20161;-51
2022/11/15 02:35:31;;;;;;;12.32;9.60;;;10.00;99.90;;;;;;5058868;28;20273;-50
2022/11/15 02:38:02;;;;;;;16.25;10.73;;;10.00;99.90;;;;;;5095485;28;20178;-49
2022/11/15 02:40:45;;;;;;;16.67;11.55;;;9.90;99.90;;;;;;5095684;28;20173;-47
2022/11/15 02:49:31;;;;;;;15.40;10.05;;;10.00;99.90;;;;;;5095553;28;20219;-49
2022/11/15 02:51:56;;;;;;;15.90;11.00;;;10.00;99.90;;;;;;5095285;28;20752;-48
2022/11/15 02:54:25;;;;;;;13.27;9.00;;;10.10;99.90;;;;;;5095184;28;20193;-47
2022/11/15 02:56:54;;;;;;;11.80;8.48;;;10.30;99.90;;;;;;5095049;28;20161;-49
2022/11/15 02:59:36;;;;;;;9.93;7.68;;;10.50;99.90;;;;;;5095011;28;20228;-48
2022/11/15 03:02:18;;;;;;;13.15;7.15;;;10.80;99.90;;;;;;5095084;28;20166;-50
2022/11/15 03:04:53;;;;;;;7.97;5.85;;;10.80;99.90;;;;;;5095192;28;20216;-52
2022/11/15 03:07:56;;;;;;;8.70;5.97;;;11.00;99.90;;;;;;5094996;28;20161;-51
2022/11/15 03:10:43;;;;;;;7.05;5.50;;;11.10;99.90;;;;;;5038298;28;20645;-51
2022/11/15 03:13:21;;;;;;;5.60;5.00;;;11.20;99.90;;;;;;5094765;28;20600;-49
2022/11/15 03:16:01;;;;;;;9.13;7.00;;;11.20;99.90;;;;;;5095224;28;20252;-51
2022/11/15 03:18:38;;;;;;;11.10;8.32;;;11.00;99.90;;;;;;5094730;28;20154;-51
2022/11/15 03:21:07;;;;;;;10.95;8.65;;;10.90;99.90;;;;;;5094559;28;20268;-47
2022/11/15 03:23:34;;;;;;;12.27;9.48;;;10.80;99.90;;;;;;5094246;28;20525;-52
2022/11/15 03:26:00;;;;;;;12.52;9.65;;;10.70;99.90;;;;;;5094747;28;20197;-52
2022/11/15 03:28:50;;;;;;;12.20;9.65;;;10.60;99.90;;;;;;5093792;28;20244;-52
2022/11/15 03:34:07;;;;;;;15.68;10.50;;;10.60;99.90;;;;;;5094734;28;20721;-51
2022/11/15 03:36:34;;;;;;;14.45;10.02;;;10.60;99.90;;;;;;5094070;28;20162;-52
2022/11/15 03:39:04;;;;;;;15.82;10.30;;;10.50;99.90;;;;;;5094359;28;20294;-52
2022/11/15 03:41:46;;;;;;;15.00;10.48;;;10.50;99.90;;;;;;5094373;28;20690;-51
2022/11/15 03:44:52;;;;;;;17.73;9.90;;;10.60;99.90;;;;;;5094072;28;20193;-49
2022/11/15 03:47:21;;;;;;;11.40;8.80;;;10.60;99.90;;;;;;5056941;28;20183;-47
2022/11/15 03:49:53;;;;;;;12.98;9.15;;;10.60;99.90;;;;;;5094399;28;20161;-48
2022/11/15 03:52:20;;;;;;;14.52;8.50;;;10.60;99.90;;;;;;5094315;28;20176;-47
2022/11/15 03:54:54;;;;;;;12.10;7.07;;;10.70;99.90;;;;;;5094322;28;20230;-51
2022/11/15 03:57:20;;;;;;;12.07;7.10;;;10.70;99.90;;;;;;5094012;28;20172;-51
2022/11/15 03:59:45;;;;;;;9.77;6.72;;;10.70;99.90;;;;;;5094076;28;20221;-51
2022/11/15 04:02:11;;;;;;;6.68;5.50;;;10.80;99.90;;;;;;5093980;28;20750;-51
2022/11/15 04:04:37;;;;;;;8.40;5.45;;;10.80;99.90;;;;;;5093499;28;20209;-51
2022/11/15 04:07:02;;;;;;;5.82;4.65;;;10.90;99.90;;;;;;5093773;28;20161;-50
2022/11/15 04:09:28;;;;;;;5.43;4.10;;;11.00;99.90;;;;;;5093435;28;20242;-51
2022/11/15 04:11:54;;;;;;;5.82;4.03;;;11.10;99.90;;;;;;5093719;28;20266;-52
2022/11/15 04:14:19;;;;;;;4.93;3.55;;;11.10;99.90;;;;;;5093060;28;20161;-51
2022/11/15 04:16:45;;;;;;;5.30;3.22;;;11.20;99.90;;;;;;5093859;28;20621;-51
2022/11/15 04:24:38;;;;;;;3.40;2.85;;;11.30;99.90;;;;;;5093376;28;20211;-47
2022/11/15 04:27:04;;;;;;;3.28;2.97;;;11.30;99.90;;;;;;5093159;28;20169;-47
2022/11/15 04:29:35;;;;;;;4.07;2.83;;;11.30;99.90;;;;;;5093553;28;20173;-47
2022/11/15 04:32:02;;;;;;;9.75;6.13;;;11.30;99.90;;;;;;5093582;28;20248;-47
2022/11/15 04:34:28;;;;;;;9.27;7.03;;;11.20;99.90;;;;;;5092355;28;20154;-47
2022/11/15 04:37:11;;;;;;;14.85;9.13;;;11.10;99.90;;;;;;5093291;28;20173;-47
2022/11/15 04:39:37;;;;;;;23.33;13.60;;;11.10;99.90;;;;;;5093117;28;20165;-47
2022/11/15 04:42:03;;;;;;;33.50;18.85;;;11.00;99.90;;;;;;5093054;28;20215;-47
2022/11/15 04:44:29;;;;;;;29.83;17.98;;;10.90;99.90;;;;;;5092932;28;20213;-47
2022/11/15 04:46:54;;;;;;;22.15;13.18;;;10.90;99.90;;;;;;5093227;28;20170;-47
2022/11/15 04:49:20;;;;;;;18.90;11.32;;;10.90;99.90;;;;;;5092976;28;20682;-47
2022/11/15 04:51:45;;;;;;;12.35;9.35;;;10.90;99.90;;;;;;5093254;28;20166;-48
2022/11/15 04:54:11;;;;;;;14.55;9.48;;;10.80;99.90;;;;;;5074640;28;20173;-47
2022/11/15 04:56:36;;;;;;;12.32;9.38;;;10.80;99.90;;;;;;5092873;28;20161;-47
2022/11/15 04:59:02;;;;;;;12.88;9.23;;;10.90;99.90;;;;;;5092627;28;20209;-47
2022/11/15 05:01:27;;;;;;;16.40;8.18;;;10.90;99.90;;;;;;5092707;28;20217;-47
2022/11/15 05:06:37;;;;;;;12.65;8.20;;;10.80;99.90;;;;;;5092665;28;20187;-47
2022/11/15 05:09:03;;;;;;;12.95;8.48;;;10.80;99.90;;;;;;5092080;28;20161;-47
2022/11/15 05:11:28;;;;;;;11.85;8.65;;;10.50;99.90;;;;;;5092177;28;20173;-48
2022/11/15 05:13:54;;;;;;;10.70;7.45;;;10.80;99.90;;;;;;5092460;28;20268;-51
2022/11/15 05:16:20;;;;;;;11.50;7.85;;;10.80;99.90;;;;;;5092420;28;20306;-51
2022/11/15 05:18:45;;;;;;;7.25;6.20;;;10.80;99.90;;;;;;5091744;28;20161;-52
2022/11/15 05:21:13;;;;;;;6.00;4.50;;;10.90;99.90;;;;;;5092189;28;20574;-51
2022/11/15 05:23:39;;;;;;;3.40;3.05;;;10.90;99.90;;;;;;5092319;28;20201;-54
2022/11/15 05:26:06;;;;;;;3.45;2.28;;;11.00;99.90;;;;;;5092307;28;20172;-52
2022/11/15 05:28:32;;;;;;;2.75;2.55;;;11.00;99.90;;;;;;5092262;28;20629;-52
2022/11/15 05:31:08;;;;;;;2.60;2.40;;;11.20;99.90;;;;;;5091948;28;20259;-51
2022/11/15 05:33:36;;;;;;;2.30;2.03;;;11.30;99.90;;;;;;5092261;28;20176;-51
2022/11/15 05:36:07;;;;;;;3.17;2.45;;;11.30;99.90;;;;;;5092142;28;20170;-52
2022/11/15 05:38:33;;;;;;;2.22;1.98;;;11.40;99.90;;;;;;5092108;28;20164;-52
2022/11/15 05:41:00;;;;;;;2.45;2.17;;;11.40;99.90;;;;;;5092137;28;20173;-51
2022/11/15 05:43:27;;;;;;;2.28;2.05;;;11.40;99.90;;;;;;5092024;28;20168;-52
2022/11/15 05:45:53;;;;;;;2.80;2.33;;;11.50;99.90;;;;;;5091826;28;20607;-51
2022/11/15 05:48:19;;;;;;;3.05;1.70;;;11.50;99.90;;;;;;5092085;28;20169;-51
2022/11/15 05:50:46;;;;;;;2.10;1.90;;;11.50;99.90;;;;;;5092335;28;20677;-52
2022/11/15 05:53:14;;;;;;;2.40;1.80;;;11.40;99.90;;;;;;5091907;28;20165;-52
2022/11/15 05:55:41;;;;;;;3.28;2.80;;;11.50;99.90;;;;;;5091951;28;20206;-52
2022/11/15 05:58:07;;;;;;;1.77;1.58;;;11.40;99.90;;;;;;5091949;28;20173;-51
2022/11/15 06:00:33;;;;;;;1.73;1.63;;;11.50;99.90;;;;;;5091687;28;20217;-48
2022/11/15 06:02:58;;;;;;;2.47;1.83;;;11.40;99.90;;;;;;5091851;28;20161;-48
2022/11/15 06:05:24;;;;;;;3.75;1.45;;;11.40;99.90;;;;;;5091714;28;20204;-48
2022/11/15 06:07:49;;;;;;;1.52;1.42;;;11.40;99.90;;;;;;5091859;28;20218;-48
2022/11/15 06:10:15;;;;;;;2.05;1.65;;;11.40;99.90;;;;;;5092164;28;20628;-48
2022/11/15 06:12:41;;;;;;;1.60;1.50;;;11.40;99.90;;;;;;5091571;28;20508;-49
2022/11/15 06:15:07;;;;;;;1.98;1.50;;;11.30;99.90;;;;;;5091764;28;20545;-51
2022/11/15 06:17:32;;;;;;;1.58;1.38;;;11.30;99.90;;;;;;5091792;28;20158;-51
2022/11/15 06:19:58;;;;;;;1.40;1.30;;;11.30;99.90;;;;;;5091796;28;20252;-51
2022/11/15 06:22:23;;;;;;;1.52;1.42;;;11.20;99.90;;;;;;5073640;28;20633;-52
2022/11/15 06:24:49;;;;;;;1.85;1.30;;;11.20;99.90;;;;;;5091441;28;20197;-52
2022/11/15 06:27:15;;;;;;;1.55;1.45;;;11.20;99.90;;;;;;5091998;28;20169;-50
2022/11/15 06:29:40;;;;;;;1.60;1.50;;;11.20;99.90;;;;;;5091674;28;20165;-48
2022/11/15 06:32:06;;;;;;;1.73;1.60;;;11.10;99.90;;;;;;5091523;28;20165;-48
2022/11/15 06:34:31;;;;;;;2.45;1.23;;;11.00;99.90;;;;;;5073538;28;20275;-48
2022/11/15 06:36:57;;;;;;;1.55;1.40;;;11.00;99.90;;;;;;5091531;28;20197;-48
2022/11/15 06:39:22;;;;;;;2.45;1.80;;;11.00;99.90;;;;;;5091418;28;20232;-48
2022/11/15 06:41:48;;;;;;;4.20;1.63;;;11.00;99.90;;;;;;5091400;28;20172;-48
2022/11/15 06:44:13;;;;;;;3.67;1.63;;;10.90;99.90;;;;;;5091708;28;20189;-48
2022/11/15 06:46:39;;;;;;;2.63;1.52;;;10.90;99.90;;;;;;5091581;28;20628;-50
2022/11/15 06:49:04;;;;;;;5.75;1.73;;;10.90;99.90;;;;;;5091090;28;20172;-48
2022/11/15 06:51:30;;;;;;;3.15;1.70;;;10.80;99.90;;;;;;5091330;28;20537;-49
2022/11/15 06:53:55;;;;;;;2.10;1.80;;;10.80;99.90;;;;;;5091327;28;20204;-48
2022/11/15 06:56:21;;;;;;;3.75;1.92;;;10.80;99.90;;;;;;5091306;28;20173;-51
2022/11/15 06:58:46;;;;;;;1.88;1.67;;;10.80;99.90;;;;;;5093897;28;20169;-48
2022/11/15 07:01:12;;;;;;;2.33;1.70;;;10.80;99.90;;;;;;5095255;28;20173;-50
2022/11/15 07:03:41;;;;;;;1.35;1.25;;;10.80;99.90;;;;;;5094963;28;20291;-51
2022/11/15 07:06:08;;;;;;;1.65;1.45;;;10.90;99.90;;;;;;5094757;28;20575;-50
2022/11/15 07:08:34;;;;;;;2.63;1.80;;;10.90;99.90;;;;;;5094270;28;20169;-50
2022/11/15 07:11:02;;;;;;;3.40;1.70;;;10.90;99.90;;;;;;5094695;28;20177;-50
2022/11/15 07:13:29;;;;;;;2.53;2.05;;;10.90;99.90;;;;;;5094782;28;20525;-49
2022/11/15 07:15:55;;;;;;;8.60;5.25;;;10.90;99.90;;;;;;5077249;28;20595;-52
2022/11/15 07:18:20;;;;;;;6.90;4.00;;;10.90;99.90;;;;;;5074342;28;20196;-49
2022/11/15 07:20:46;;;;;;;4.68;3.03;;;10.90;99.90;;;;;;5075002;28;20173;-49
2022/11/15 07:23:12;;;;;;;3.35;2.47;;;11.00;99.90;;;;;;5074644;28;20576;-51
2022/11/15 07:25:38;;;;;;;2.90;2.03;;;11.00;99.90;;;;;;5074211;28;20241;-52
2022/11/15 07:28:03;;;;;;;2.58;1.77;;;11.00;99.90;;;;;;5074000;28;20173;-52
2022/11/15 07:30:29;;;;;;;2.70;1.85;;;11.00;99.90;;;;;;5074254;28;20197;-51
2022/11/15 07:32:56;;;;;;;1.63;1.48;;;11.10;99.90;;;;;;5073841;28;20520;-52
2022/11/15 07:35:23;;;;;;;2.33;1.77;;;11.10;99.90;;;;;;5073751;28;20638;-51
2022/11/15 07:37:59;;;;;;;2.65;1.60;;;11.10;99.90;;;;;;5073962;28;20173;-49
2022/11/15 07:40:27;;;;;;;2.30;1.88;;;11.30;99.90;;;;;;5073865;28;20165;-49
2022/11/15 07:42:52;;;;;;;2.10;1.80;;;11.30;99.90;;;;;;5074118;28;20638;-49
2022/11/15 07:45:19;;;;;;;5.90;2.58;;;11.40;99.90;;;;;;5073809;28;20255;-48
2022/11/15 07:47:49;;;;;;;2.85;1.85;;;11.40;99.90;;;;;;5074327;28;20249;-49
2022/11/15 07:50:15;;;;;;;3.53;1.60;;;11.40;99.90;;;;;;5074199;28;20170;-49
2022/11/15 07:52:40;;;;;;;3.47;1.77;;;11.50;99.90;;;;;;5073897;28;20170;-49
2022/11/15 07:55:06;;;;;;;2.38;1.60;;;11.50;99.90;;;;;;5073709;28;20184;-49
2022/11/15 07:57:32;;;;;;;2.03;1.50;;;11.50;99.90;;;;;;5073694;28;20634;-49
2022/11/15 07:59:58;;;;;;;2.25;1.80;;;11.50;99.90;;;;;;5073146;28;20224;-50
2022/11/15 08:02:23;;;;;;;1.50;1.33;;;11.40;99.90;;;;;;5073494;28;20359;-49
2022/11/15 08:04:49;;;;;;;2.17;1.75;;;11.50;99.90;;;;;;5073321;28;20197;-48
2022/11/15 08:07:14;;;;;;;3.75;2.03;;;11.40;99.90;;;;;;5073845;28;20236;-49
2022/11/15 08:09:40;;;;;;;6.18;2.33;;;11.40;99.90;;;;;;5073705;28;20245;-49
2022/11/15 08:12:05;;;;;;;4.57;1.73;;;11.40;99.90;;;;;;5073484;28;20176;-48
2022/11/15 08:14:31;;;;;;;1.92;1.67;;;11.40;99.90;;;;;;5073665;28;20169;-49
2022/11/15 08:16:57;;;;;;;3.30;1.63;;;11.40;99.90;;;;;;5073403;28;20174;-49
2022/11/15 08:19:22;;;;;;;1.60;1.20;;;11.40;99.90;;;;;;5073242;28;20224;-49
2022/11/15 08:21:48;;;;;;;3.05;1.50;;;11.40;99.90;;;;;;5072861;28;20166;-49
2022/11/15 08:24:14;;;;;;;1.42;1.33;;;11.50;99.90;;;;;;5073282;28;20244;-49
2022/11/15 08:26:39;;;;;;;1.60;1.50;;;11.60;99.90;;;;;;5073182;28;20176;-49
2022/11/15 08:29:05;;;;;;;2.08;1.60;;;11.60;99.90;;;;;;5073183;28;20170;-48
2022/11/15 08:31:31;;;;;;;3.45;1.60;;;11.70;99.90;;;;;;5073111;28;20177;-49
2022/11/15 08:33:56;;;;;;;4.25;1.58;;;11.70;99.90;;;;;;5073205;28;20170;-49
2022/11/15 08:36:22;;;;;;;4.57;1.75;;;11.70;99.90;;;;;;5073082;28;20219;-50
2022/11/15 08:38:47;;;;;;;2.55;1.52;;;11.80;99.90;;;;;;5073007;28;20634;-49
2022/11/15 08:41:27;;;;;;;2.95;1.77;;;11.90;99.90;;;;;;5073201;28;20647;-50
2022/11/15 08:43:53;;;;;;;3.55;2.10;;;11.80;99.90;;;;;;5072752;28;20645;-49
2022/11/15 08:46:19;;;;;;;4.18;2.22;;;11.80;99.90;;;;;;5072354;28;20260;-50
2022/11/15 08:48:44;;;;;;;5.35;2.22;;;11.80;99.90;;;;;;5072887;28;20162;-49
2022/11/15 08:51:10;;;;;;;2.28;1.45;;;11.90;99.90;;;;;;5084255;28;20181;-50
2022/11/15 08:53:36;;;;;;;3.25;1.42;;;11.90;99.90;;;;;;5091409;28;20621;-47
2022/11/15 08:56:01;;;;;;;4.18;1.80;;;12.00;99.90;;;;;;5091202;28;20192;-48
2022/11/15 08:58:27;;;;;;;5.25;1.98;;;11.90;99.90;;;;;;5083377;28;20223;-49
2022/11/15 09:00:52;;;;;;;1.77;1.27;;;12.00;99.90;;;;;;5070604;28;20213;-52
2022/11/15 09:03:18;;;;;;;2.75;1.00;;;11.90;99.90;;;;;;5070709;28;20579;-45
2022/11/15 09:05:44;;;;;;;3.55;1.75;;;12.00;99.90;;;;;;5071248;28;20209;-50
2022/11/15 09:08:12;;;;;;;3.67;1.90;;;12.10;99.90;;;;;;5071218;28;20372;-53
2022/11/15 09:10:38;;;;;;;2.15;1.65;;;12.10;99.90;;;;;;5070601;28;20170;-47
2022/11/15 09:13:04;;;;;;;4.57;1.58;;;12.20;99.90;;;;;;5070816;28;20621;-46
2022/11/15 09:15:29;;;;;;;2.08;1.35;;;12.30;99.90;;;;;;5070686;28;20162;-52
2022/11/15 09:17:59;;;;;;;2.35;1.30;;;12.30;99.90;;;;;;5070624;28;20166;-55
2022/11/15 09:20:24;;;;;;;17.25;5.88;;;12.40;99.90;;;;;;5070454;28;20178;-50
2022/11/15 09:22:50;;;;;;;5.03;2.55;;;12.50;99.90;;;;;;5070250;28;20169;-53
2022/11/15 09:25:16;;;;;;;13.38;4.15;;;12.40;99.90;;;;;;5070795;28;20228;-50
2022/11/15 09:27:41;;;;;;;8.25;2.92;;;12.50;99.90;;;;;;5070440;28;20240;-58
2022/11/15 09:30:07;;;;;;;2.75;1.30;;;12.50;99.90;;;;;;5070643;28;20231;-53
2022/11/15 09:32:33;;;;;;;7.22;2.67;;;12.50;99.90;;;;;;5070793;28;20198;-53
2022/11/15 09:34:59;;;;;;;3.00;1.20;;;12.60;99.90;;;;;;5070476;28;20232;-50
2022/11/15 09:37:24;;;;;;;3.58;1.65;;;12.60;99.90;;;;;;5070426;28;20720;-63
2022/11/15 09:39:50;;;;;;;9.00;2.42;;;12.50;99.90;;;;;;5070399;28;20256;-56
2022/11/15 09:42:19;;;;;;;7.75;3.08;;;12.50;99.90;;;;;;5070764;28;20249;-53
2022/11/15 09:44:58;;;;;;;10.60;3.38;;;12.50;99.90;;;;;;5070679;28;20627;-51
2022/11/15 09:47:47;;;;;;;8.60;2.00;;;12.50;99.90;;;;;;5070499;28;20535;-51
2022/11/15 09:50:15;;;;;;;2.40;1.90;;;12.40;99.90;;;;;;5071032;28;20536;-51
2022/11/15 09:52:44;;;;;;;6.28;2.55;;;12.50;99.90;;;;;;5070654;28;20173;-52
2022/11/15 09:55:21;;;;;;;4.47;1.52;;;12.70;99.90;;;;;;5070338;28;20264;-45
2022/11/15 09:57:56;;;;;;;6.70;2.90;;;12.70;99.90;;;;;;5070505;28;20174;-44
2022/11/15 10:00:34;;;;;;;3.05;1.40;;;12.70;99.90;;;;;;5086145;28;20223;-51
2022/11/15 10:03:16;;;;;;;5.75;1.92;;;12.80;99.90;;;;;;5090478;28;20181;-55
2022/11/15 10:05:43;;;;;;;10.27;2.78;;;12.90;99.90;;;;;;5090513;28;20217;-53
2022/11/15 10:08:26;;;;;;;2.00;1.40;;;12.90;99.90;;;;;;5090374;28;20246;-53
2022/11/15 10:10:58;;;;;;;3.42;1.58;;;12.90;99.90;;;;;;5090517;28;20565;-54
2022/11/15 10:13:26;;;;;;;1.80;1.10;;;12.90;99.90;;;;;;5090393;28;20528;-58
2022/11/15 10:16:02;;;;;;;10.63;5.75;;;12.90;99.90;;;;;;5090125;28;20180;-50
2022/11/15 10:18:41;;;;;;;1.80;1.52;;;13.00;99.90;;;;;;5090333;28;20173;-52
2022/11/15 10:21:16;;;;;;;2.38;1.50;;;13.00;99.90;;;;;;5090302;28;20165;-57
2022/11/15 10:23:42;;;;;;;6.05;1.70;;;13.10;99.90;;;;;;5087692;28;20663;-55
2022/11/15 10:26:13;;;;;;;7.72;3.53;;;13.20;99.90;;;;;;5069373;28;20212;-53
2022/11/15 10:28:39;;;;;;;4.38;1.98;;;13.10;99.90;;;;;;5069976;28;20248;-50
2022/11/15 10:31:25;;;;;;;1.80;1.15;;;13.10;99.90;;;;;;5070213;28;20516;-59
2022/11/15 10:33:56;;;;;;;6.38;2.05;;;13.10;99.90;;;;;;5072594;28;20162;-58
2022/11/15 10:36:25;;;;;;;2.17;0.90;;;13.20;99.90;;;;;;5073814;28;20166;-46
2022/11/15 10:38:50;;;;;;;3.42;0.90;;;13.10;99.90;;;;;;5074249;28;20174;-51
2022/11/15 10:41:19;;;;;;;2.97;1.10;;;13.20;99.90;;;;;;5073743;28;20503;-51
2022/11/15 10:44:00;;;;;;;3.03;1.27;;;13.30;99.90;;;;;;5074055;28;20166;-49
2022/11/15 10:46:26;;;;;;;1.55;1.00;;;13.20;99.90;;;;;;5073192;28;20273;-55
2022/11/15 10:48:52;;;;;;;8.70;1.55;;;13.20;99.90;;;;;;5085627;28;20244;-52
2022/11/15 10:51:29;;;;;;;1.33;1.15;;;13.20;99.90;;;;;;5093700;28;20178;-53
2022/11/15 10:53:58;;;;;;;1.60;0.80;;;13.30;99.90;;;;;;5093806;28;20164;-53
2022/11/15 10:56:25;;;;;;;2.67;1.48;;;13.30;99.90;;;;;;5093751;28;20636;-52
2022/11/15 10:58:55;;;;;;;1.83;1.20;;;13.30;99.90;;;;;;5093019;28;20244;-52
2022/11/15 11:01:27;;;;;;;3.60;1.08;;;13.40;99.90;;;;;;5093176;28;20687;-53
2022/11/15 11:04:04;;;;;;;8.77;1.65;;;13.40;99.90;;;;;;5093570;28;20202;-51
2022/11/15 11:06:45;;;;;;;2.67;0.90;;;13.40;99.90;;;;;;5093281;28;20508;-51
2022/11/15 11:09:30;;;;;;;1.55;1.10;;;13.50;99.90;;;;;;5093762;28;20165;-51
2022/11/15 11:11:56;;;;;;;4.05;1.70;;;13.50;99.90;;;;;;5093509;28;20604;-51
2022/11/15 11:14:33;;;;;;;3.88;1.65;;;13.60;99.90;;;;;;5093482;28;20241;-50
2022/11/15 11:17:20;;;;;;;5.03;2.63;;;13.50;99.90;;;;;;5093216;28;20538;-51
2022/11/15 11:19:51;;;;;;;5.57;2.55;;;13.40;99.90;;;;;;5093225;28;20165;-51
2022/11/15 11:22:26;;;;;;;4.65;1.67;;;13.30;99.90;;;;;;5093078;28;20177;-52
2022/11/15 11:25:13;;;;;;;3.78;1.52;;;13.40;99.90;;;;;;5093287;28;20196;-52
2022/11/15 11:27:47;;;;;;;3.63;1.30;;;13.50;99.90;;;;;;5093296;28;20535;-52
2022/11/15 11:30:24;;;;;;;4.85;1.20;;;13.60;99.90;;;;;;5093419;28;20157;-52
2022/11/15 11:33:09;;;;;;;3.90;0.90;;;13.60;99.90;;;;;;5092999;28;20169;-53
2022/11/15 11:35:49;;;;;;;3.08;1.02;;;13.60;99.90;;;;;;5092974;28;20300;-52
2022/11/15 11:38:38;;;;;;;4.25;1.83;;;13.40;99.90;;;;;;5093131;28;20184;-51
2022/11/15 11:41:29;;;;;;;3.05;2.00;;;13.60;99.90;;;;;;5092783;28;20169;-53
2022/11/15 11:44:13;;;;;;;6.90;1.40;;;13.70;99.90;;;;;;5092331;28;20169;-53
2022/11/15 11:47:00;;;;;;;4.20;1.27;;;13.80;99.90;;;;;;5092841;28;20173;-52
2022/11/15 11:49:48;;;;;;;1.02;0.82;;;13.60;99.90;;;;;;5093048;28;20531;-52
2022/11/15 11:52:17;;;;;;;2.85;1.30;;;13.60;99.90;;;;;;5075137;28;20569;-53
2022/11/15 11:55:12;;;;;;;2.45;1.10;;;13.60;99.90;;;;;;5093068;28;20617;-53
2022/11/15 11:57:51;;;;;;;2.25;1.17;;;13.50;99.90;;;;;;5081072;28;20185;-52
2022/11/15 12:00:22;;;;;;;4.72;1.40;;;13.50;99.90;;;;;;5092400;28;20295;-51
2022/11/15 12:03:03;;;;;;;6.18;1.33;;;13.60;99.90;;;;;;5092424;28;20538;-51
2022/11/15 12:05:38;;;;;;;2.50;1.00;;;13.60;99.90;;;;;;5092363;28;20292;-51
2022/11/15 12:08:29;;;;;;;3.33;1.40;;;13.70;99.90;;;;;;5092368;28;20165;-51
2022/11/15 12:11:14;;;;;;;1.92;0.90;;;13.70;99.90;;;;;;5092259;28;20650;-51
2022/11/15 12:13:42;;;;;;;4.32;1.48;;;13.80;99.90;;;;;;5092254;28;20166;-52
2022/11/15 12:16:16;;;;;;;4.28;1.30;;;13.90;99.90;;;;;;5092243;28;20680;-51
2022/11/15 12:18:48;;;;;;;3.03;1.70;;;13.90;99.90;;;;;;5092790;28;20180;-51
2022/11/15 12:21:27;;;;;;;2.45;1.15;;;13.90;99.90;;;;;;5092296;28;20643;-51
2022/11/15 12:24:00;;;;;;;4.22;1.50;;;13.80;99.90;;;;;;5092052;28;20176;-52
2022/11/15 12:26:32;;;;;;;4.10;1.15;;;13.70;99.90;;;;;;5091823;28;20181;-52
2022/11/15 12:29:22;;;;;;;19.75;11.50;;;13.80;99.90;;;;;;5091738;28;20165;-51
2022/11/15 12:31:51;;;;;;;14.05;9.00;;;14.00;99.90;;;;;;5091556;28;20169;-51
2022/11/15 12:34:20;;;;;;;9.63;6.82;;;14.10;99.90;;;;;;5091724;28;20252;-52
2022/11/15 12:36:47;;;;;;;5.63;2.67;;;14.10;99.90;;;;;;5091477;28;20165;-51
2022/11/15 12:39:14;;;;;;;7.45;1.83;;;14.10;99.90;;;;;;5091868;28;20633;-51
2022/11/15 12:42:04;;;;;;;2.17;1.40;;;14.10;99.90;;;;;;5091898;28;20162;-51
2022/11/15 12:44:35;;;;;;;2.40;1.58;;;14.00;99.90;;;;;;5091435;28;20197;-52
2022/11/15 12:47:22;;;;;;;3.15;1.50;;;13.90;99.90;;;;;;5091658;28;20367;-51
2022/11/15 12:49:48;;;;;;;4.80;2.35;;;13.80;99.90;;;;;;5091517;28;20169;-51
2022/11/15 12:52:14;;;;;;;5.57;1.90;;;13.70;99.90;;;;;;5091749;28;20165;-52
2022/11/15 12:54:39;;;;;;;5.22;1.40;;;13.60;99.90;;;;;;5091555;28;20165;-52
2022/11/15 12:57:08;;;;;;;3.83;1.60;;;13.60;99.90;;;;;;5091097;28;20166;-51
2022/11/15 12:59:58;;;;;;;3.10;1.60;;;13.60;99.90;;;;;;5091505;28;20638;-50
2022/11/15 13:02:48;;;;;;;3.47;1.55;;;13.60;99.90;;;;;;5091411;28;20169;-50
2022/11/15 13:05:22;;;;;;;5.32;1.90;;;13.60;99.90;;;;;;5091569;28;20570;-51
2022/11/15 13:07:48;;;;;;;3.45;1.55;;;13.60;99.90;;;;;;5091214;28;20161;-51
2022/11/15 13:10:13;;;;;;;4.15;1.33;;;13.60;99.90;;;;;;5091572;28;20177;-51
2022/11/15 13:12:45;;;;;;;1.90;1.30;;;13.60;99.90;;;;;;5091597;28;20218;-51
2022/11/15 13:15:13;;;;;;;4.07;1.40;;;13.60;99.90;;;;;;5091391;28;20162;-51